Pagrindinis puslapis
METAR-TAF:

METAR-TAF

Oro uostai :

Bamakas, Malis

platuma: 12-32N, ilguma: 007-57W, Aukštis: 380 m

Dabartinis oras

Ataskaita buvo paskelbta 41 minutes, ne 08:00 UTC
Vėjas 2 kt nuo kintamojo kryptimis
Temperatūra 22°C
Drėgmė 69%
Slėgis 1014 hPa
Matomumas: 6000 m

METAR: GABS 290800Z VRB02KT 6000 NSC 22/16 Q1014 NOSIG

Laikas: 08:41 (08:41 UTC)

Prognozė

Ataskaita buvo paskelbta 3 valandos ir 41 minutes, ne 05:00 UTC
Prognozė galioja nuo 29 metu 06 UTC su 30 metu 12 UTC
Vėjas 8 kt iš Rytų/Šiaurės Rytų su gūsio iki 18 kt
Matomumas: 8000 m
Tikimybė 40% :
Laikinai
nuo 29 metu 06 UTC su 29 metu 10 UTC
Matomumas: 4000 m
migla
Tikimybė 40% :
Laikinai
nuo 29 metu 17 UTC su 29 metu 23 UTC
Matomumas: 4000 m
migla
Tikimybė 40% :
Laikinai
nuo 30 metu 06 UTC su 30 metu 10 UTC
Matomumas: 4000 m
migla

TAF: GABS 290500Z 2906/3012 06008G18KT 8000 NSC PROB40 TEMPO 2906/2910 4000 HZ PROB40 TEMPO 2917/2923 4000 HZ PROB40 TEMPO 3006/3010 4000 HZ

Orai ataskaitas ir orų prognozės (METAR, TAF).

turimą stotys yra geltonos ir raudonos taškus žemėlapyje.

Perkelti pele per norėdami pamatyti stoties vardą.

Tada spustelėkite, norėdami matyti oro stebėjimo ir prognozės.

Norėdami pakeisti žemėlapį: spustelėkite ant žalios mygtukų su juodo kryžiaus žemyn,; žalią mygtuką su brūkšneliu, jei norite nutolinti; arba žalių rodyklių gretimoms žemėlapius.


METAR-TAF: